Time;durP1;ratioP1;P1;durP2;ratioP2;P2;SDS_P1;SDS_P2;PMS_P1;PMS_P2;Temp;Humidity;BMP_temperature;BMP_pressure;BME280_temperature;BME280_humidity;BME280_pressure;Samples;Min_cycle;Max_cycle;Signal;HPM_P1;HPM_P2
2023/09/26 00:00:13;;;;;;;16.88;11.02;;;18.50;99.90;;;19.03;93.21;102039.38;5055803;28;20044;-72
2023/09/26 00:02:43;;;;;;;17.38;11.65;;;18.50;99.90;;;19.03;92.98;102034.03;5045856;28;20045;-72
2023/09/26 00:05:11;;;;;;;17.55;11.32;;;18.60;99.90;;;19.06;92.65;102044.69;5054795;28;20049;-72
2023/09/26 00:07:40;;;;;;;17.48;11.32;;;18.60;99.90;;;19.09;92.70;102041.91;5054038;28;20102;-72
2023/09/26 00:10:11;;;;;;;16.02;11.88;;;18.60;99.90;;;19.11;92.54;102054.41;5054884;28;20131;-72
2023/09/26 00:12:40;;;;;;;15.82;11.13;;;18.60;99.90;;;19.14;92.18;102054.34;5054966;28;20041;-72
2023/09/26 00:15:11;;;;;;;18.65;11.30;;;18.60;99.90;;;19.21;91.98;102057.78;5054871;28;20490;-71
2023/09/26 00:17:41;;;;;;;16.77;11.25;;;18.70;99.90;;;19.10;91.93;102051.75;5055241;28;20041;-72
2023/09/26 00:20:37;;;;;;;19.88;11.13;;;18.70;99.90;;;19.08;92.26;102049.09;5055078;28;20127;-71
2023/09/26 00:23:07;;;;;;;19.08;12.20;;;18.60;99.90;;;19.08;92.21;102050.91;5055152;28;20077;-72
2023/09/26 00:25:37;;;;;;;18.65;12.60;;;18.60;99.90;;;19.12;92.01;102053.50;5054779;28;20045;-72
2023/09/26 00:28:07;;;;;;;18.17;11.98;;;18.60;99.90;;;19.14;91.82;102053.44;5055597;28;20044;-72
2023/09/26 00:30:37;;;;;;;17.80;12.07;;;18.70;99.90;;;19.12;91.63;102057.97;5054908;28;20052;-72
2023/09/26 00:33:05;;;;;;;18.00;11.83;;;18.70;99.90;;;18.90;92.26;102066.44;5054952;28;20490;-71
2023/09/26 00:35:33;;;;;;;17.83;12.25;;;18.50;99.90;;;18.70;93.55;102052.53;5054912;28;20295;-72
2023/09/26 00:38:02;;;;;;;16.70;10.95;;;18.30;99.90;;;18.81;93.34;102053.19;5055135;28;20394;-71
2023/09/26 00:40:31;;;;;;;15.80;11.40;;;18.30;99.90;;;18.84;93.19;102055.84;5067134;28;20137;-72
2023/09/26 00:43:00;;;;;;;16.50;11.50;;;18.40;99.90;;;18.85;93.22;102054.91;5053381;28;20095;-72
2023/09/26 00:48:33;;;;;;;18.05;11.60;;;18.40;99.90;;;18.65;93.62;102049.06;5122671;23;20065;-71
2023/09/26 00:51:02;;;;;;;14.90;10.98;;;18.30;99.90;;;18.44;94.50;102044.09;4998500;28;20057;-72
2023/09/26 00:53:31;;;;;;;16.40;10.90;;;18.00;99.90;;;18.44;95.30;102049.47;5021881;28;20407;-71
2023/09/26 00:56:01;;;;;;;16.02;10.82;;;18.00;99.90;;;18.26;95.72;102049.72;5006542;28;20046;-72
2023/09/26 00:58:32;;;;;;;19.90;12.27;;;17.90;99.90;;;17.62;96.30;101944.59;4998338;28;20046;-72
2023/09/26 01:01:01;;;;;;;17.45;12.05;;;17.80;99.90;;;18.42;96.08;102055.72;4999039;28;20337;-72
2023/09/26 01:03:29;;;;;;;17.10;12.02;;;17.90;99.90;;;18.50;95.39;102054.72;5013846;28;20472;-71
2023/09/26 01:06:02;;;;;;;17.85;12.05;;;18.00;99.90;;;18.66;94.72;102061.53;5001449;28;20168;-72
2023/09/26 01:08:31;;;;;;;17.60;12.18;;;18.20;99.90;;;18.72;94.15;102050.69;5024992;28;20049;-72
2023/09/26 01:11:00;;;;;;;18.10;12.70;;;18.20;99.90;;;18.79;93.60;102051.47;5014503;28;20046;-71
2023/09/26 01:13:28;;;;;;;19.50;12.65;;;18.30;99.90;;;18.84;93.13;102057.63;5019123;28;20117;-72
2023/09/26 01:15:57;;;;;;;18.80;12.90;;;18.40;99.90;;;18.89;92.79;102053.06;5022632;28;20042;-71
2023/09/26 01:18:26;;;;;;;16.75;12.52;;;18.40;99.90;;;18.93;92.47;102050.28;4997344;28;20038;-71
2023/09/26 01:20:54;;;;;;;18.88;12.70;;;18.50;99.90;;;19.01;92.11;102052.81;5005971;28;20046;-72
2023/09/26 01:23:27;;;;;;;20.90;13.98;;;18.50;99.90;;;19.01;92.01;102052.81;5018718;28;20062;-72
2023/09/26 01:25:58;;;;;;;21.80;13.25;;;18.60;99.90;;;19.07;91.76;102038.38;4998516;28;20043;-72
2023/09/26 01:28:26;;;;;;;18.10;12.85;;;18.60;99.90;;;19.06;91.60;102039.31;5024838;28;20078;-71
2023/09/26 01:30:55;;;;;;;17.00;12.55;;;18.50;99.90;;;19.03;91.11;102028.66;5000983;28;20388;-72
2023/09/26 01:33:23;;;;;;;16.05;12.35;;;18.50;99.90;;;19.06;90.96;102031.25;5017404;28;20077;-72
2023/09/26 01:35:52;;;;;;;20.35;13.10;;;18.60;99.90;;;19.02;91.27;102030.44;5023601;28;20076;-72
2023/09/26 01:38:21;;;;;;;18.50;12.77;;;18.50;99.90;;;18.96;91.61;102022.53;4996798;28;20046;-73
2023/09/26 01:40:50;;;;;;;17.88;12.05;;;18.50;99.90;;;18.99;91.82;102027.81;5005136;28;20105;-72
2023/09/26 01:43:20;;;;;;;18.98;12.57;;;18.40;99.90;;;18.98;91.68;102023.38;5005300;28;20053;-72
2023/09/26 01:45:49;;;;;;;19.25;13.07;;;18.50;99.90;;;18.78;92.60;102018.41;4997278;28;20101;-72
2023/09/26 01:48:18;;;;;;;16.67;11.90;;;18.30;99.90;;;18.59;93.20;101994.66;5009000;28;20058;-72
2023/09/26 01:50:46;;;;;;;16.92;12.18;;;18.20;99.90;;;18.68;93.56;102024.84;5001818;28;20073;-72
2023/09/26 01:53:14;;;;;;;18.73;12.75;;;18.20;99.90;;;18.53;94.43;102014.44;5000639;28;20353;-71
2023/09/26 01:55:42;;;;;;;18.13;12.18;;;18.10;99.90;;;17.70;94.99;101887.38;5024502;28;20058;-72
2023/09/26 01:58:11;;;;;;;19.40;12.32;;;18.00;99.90;;;18.29;95.89;101996.09;5013012;28;20050;-72
2023/09/26 02:00:41;;;;;;;16.67;11.88;;;17.90;99.90;;;18.27;96.53;102008.66;5003845;28;20042;-72
2023/09/26 02:03:09;;;;;;;17.65;12.77;;;17.80;99.90;;;18.38;96.05;102006.66;5006161;28;20050;-72
2023/09/26 02:05:37;;;;;;;19.42;12.82;;;17.80;99.90;;;18.44;95.86;102011.94;5011909;28;20050;-72
2023/09/26 02:08:06;;;;;;;24.23;12.95;;;17.90;99.90;;;18.44;95.56;102006.59;5007662;28;20053;-72
2023/09/26 02:10:35;;;;;;;19.88;12.65;;;18.00;99.90;;;18.41;95.52;102009.25;5017585;28;20069;-71
2023/09/26 02:13:04;;;;;;;23.98;13.98;;;18.00;99.90;;;18.29;95.94;102000.59;5015213;28;20065;-72
2023/09/26 02:15:32;;;;;;;21.15;13.98;;;17.90;99.90;;;18.34;95.87;101999.59;5008931;28;20038;-72
2023/09/26 02:18:02;;;;;;;18.77;13.75;;;17.90;99.90;;;18.33;95.66;101996.94;4998748;28;20119;-71
2023/09/26 02:20:31;;;;;;;19.98;14.32;;;17.90;99.90;;;18.34;95.57;101996.91;5002932;28;20411;-72
2023/09/26 02:22:59;;;;;;;23.38;13.93;;;17.90;99.90;;;18.37;95.14;101995.97;5007112;28;20053;-70
2023/09/26 02:25:29;;;;;;;21.63;14.48;;;17.90;99.90;;;18.41;94.89;101998.53;4996479;28;20042;-72
2023/09/26 02:27:57;;;;;;;23.60;15.13;;;18.00;99.90;;;18.42;94.71;102008.41;5006436;28;20109;-71
2023/09/26 02:30:28;;;;;;;21.05;13.98;;;18.00;99.90;;;18.49;94.29;102002.00;5003190;28;20073;-72
2023/09/26 02:32:57;;;;;;;21.77;14.00;;;18.00;99.90;;;18.49;93.96;101993.06;4997740;28;20439;-72
2023/09/26 02:35:27;;;;;;;20.40;14.60;;;18.10;99.90;;;18.57;93.75;102004.53;5023838;28;20056;-72
2023/09/26 02:37:56;;;;;;;20.00;13.88;;;18.10;99.90;;;18.53;93.39;101989.44;5000161;28;20123;-71
2023/09/26 02:40:25;;;;;;;20.67;14.45;;;18.10;99.90;;;18.60;93.28;101997.31;5000498;28;20043;-72
2023/09/26 02:42:54;;;;;;;19.00;13.73;;;18.10;99.90;;;18.59;93.08;101995.56;5007721;28;20514;-72
2023/09/26 02:45:22;;;;;;;18.67;13.15;;;18.10;99.90;;;18.59;92.95;101992.00;4994719;28;20115;-72
2023/09/26 02:47:51;;;;;;;19.77;13.10;;;18.10;99.90;;;18.60;92.68;101985.72;5004179;28;20069;-72
2023/09/26 02:50:21;;;;;;;21.42;13.32;;;18.10;99.90;;;18.63;92.58;101997.28;5004565;28;20532;-72
2023/09/26 02:52:50;;;;;;;17.23;12.48;;;18.10;99.90;;;18.44;92.25;101966.38;4996049;28;20388;-71
2023/09/26 02:55:20;;;;;;;18.93;12.97;;;18.10;99.90;;;18.57;92.31;101997.38;5007074;28;20051;-72
2023/09/26 02:57:48;;;;;;;18.52;13.30;;;18.10;99.90;;;18.49;92.71;101995.75;5001232;28;20046;-71
2023/09/26 03:00:17;;;;;;;22.42;13.05;;;18.00;99.90;;;18.49;92.85;101985.03;4999499;28;20042;-72
2023/09/26 03:02:47;;;;;;;23.50;12.93;;;18.00;99.90;;;18.49;92.83;101977.00;5008710;28;20049;-72
2023/09/26 03:05:17;;;;;;;20.02;13.40;;;18.00;99.90;;;18.40;93.09;101975.34;4998110;28;20401;-73
2023/09/26 03:07:51;;;;;;;20.73;13.73;;;17.90;99.90;;;18.30;93.53;101972.88;5017888;28;20050;-72
2023/09/26 03:10:19;;;;;;;19.55;13.10;;;17.80;99.90;;;18.32;93.57;101969.25;5006929;28;20069;-71
2023/09/26 03:12:48;;;;;;;20.52;13.57;;;17.80;99.90;;;18.28;93.70;101972.91;5014407;28;20485;-72
2023/09/26 03:15:17;;;;;;;25.50;14.85;;;17.80;99.90;;;18.16;94.49;101978.47;5010221;28;20046;-72
2023/09/26 03:17:47;;;;;;;18.85;13.45;;;17.70;99.90;;;18.00;95.14;101974.31;5021936;28;20042;-71
2023/09/26 03:20:16;;;;;;;20.60;14.50;;;17.60;99.90;;;18.01;95.50;101968.94;5001232;28;20145;-72
2023/09/26 03:22:45;;;;;;;22.27;14.63;;;17.60;99.90;;;17.80;95.98;101957.69;5012594;28;20360;-72
2023/09/26 03:25:14;;;;;;;24.27;15.82;;;17.40;99.90;;;17.67;97.39;101956.13;5019006;28;20132;-72
2023/09/26 03:27:46;;;;;;;20.17;15.25;;;17.30;99.90;;;17.66;97.87;101949.88;5004774;28;20050;-72
2023/09/26 03:30:16;;;;;;;25.30;15.50;;;17.20;99.90;;;17.84;97.53;101964.75;5012160;28;20046;-71
2023/09/26 03:32:44;;;;;;;23.02;16.05;;;17.40;99.90;;;17.81;97.25;101943.38;5000642;28;20128;-71
2023/09/26 03:35:13;;;;;;;21.75;15.68;;;17.40;99.90;;;17.90;97.04;101954.81;5027870;28;20137;-72
2023/09/26 03:37:41;;;;;;;23.50;15.73;;;17.40;99.90;;;17.90;97.01;101937.91;5008493;28;20124;-71
2023/09/26 03:40:11;;;;;;;22.17;16.25;;;17.50;99.90;;;18.09;96.43;101942.00;4999570;28;20054;-72
2023/09/26 03:42:41;;;;;;;20.65;16.45;;;17.70;99.90;;;18.06;96.25;101955.44;5010471;28;20043;-72
2023/09/26 03:45:10;;;;;;;25.05;16.58;;;17.60;99.90;;;18.12;95.91;101949.97;5002987;28;20054;-73
2023/09/26 03:47:39;;;;;;;26.70;17.08;;;17.70;99.90;;;18.16;95.84;101953.47;5001717;28;20050;-72
2023/09/26 03:50:10;;;;;;;25.35;16.13;;;17.70;99.90;;;18.14;95.77;101942.78;5011342;28;20522;-72
2023/09/26 03:52:38;;;;;;;24.92;17.17;;;17.70;99.90;;;18.11;95.72;101950.00;5016376;28;20410;-72
2023/09/26 03:55:07;;;;;;;22.52;16.95;;;17.70;99.90;;;18.02;95.66;101937.69;5005598;28;20168;-72
2023/09/26 03:57:36;;;;;;;23.80;17.60;;;17.60;99.90;;;17.91;96.26;101940.53;5009783;28;20049;-72
2023/09/26 04:00:15;;;;;;;25.58;18.08;;;17.50;99.90;;;17.74;97.46;101939.06;4999303;28;20050;-72
2023/09/26 04:02:45;;;;;;;25.73;18.33;;;17.40;99.90;;;17.89;97.39;101926.28;5022268;28;20046;-72
2023/09/26 04:05:14;;;;;;;27.63;18.98;;;17.40;99.90;;;17.87;97.00;101928.13;5006151;28;20037;-72
2023/09/26 04:07:42;;;;;;;24.80;18.05;;;17.40;99.90;;;17.82;97.21;101927.31;4999090;28;20153;-72
2023/09/26 04:10:11;;;;;;;28.05;18.73;;;17.40;99.90;;;17.88;97.32;101934.34;5011113;28;20049;-72
2023/09/26 04:12:40;;;;;;;24.08;17.02;;;17.40;99.90;;;17.88;96.79;101927.22;5003586;28;20136;-72
2023/09/26 04:15:11;;;;;;;29.02;18.67;;;17.50;99.90;;;17.92;96.26;101936.94;5002561;28;20113;-71
2023/09/26 04:17:39;;;;;;;;;;;17.50;99.90;;;17.99;96.40;101929.69;5010556;28;20060;-72
2023/09/26 04:20:19;;;;;;;25.48;18.75;;;17.60;99.90;;;17.83;96.43;101930.84;5015098;28;20327;-72
2023/09/26 04:23:05;;;;;;;29.42;18.17;;;17.60;99.90;;;17.99;96.40;101937.72;5001608;28;20050;-72
2023/09/26 04:25:35;;;;;;;26.15;17.02;;;17.60;99.90;;;18.08;96.24;101926.84;5011052;28;20495;-72
2023/09/26 04:28:04;;;;;;;28.33;18.10;;;17.60;99.90;;;18.17;95.98;101937.41;5000256;28;20046;-72
2023/09/26 04:30:39;;;;;;;26.65;16.88;;;17.70;99.90;;;18.23;95.56;101926.56;5005333;28;20046;-72
2023/09/26 04:33:09;;;;;;;25.45;18.35;;;17.80;99.90;;;17.88;96.55;101924.53;5009264;28;20049;-73
2023/09/26 04:35:38;;;;;;;24.08;17.85;;;17.50;99.90;;;17.62;98.01;101921.41;4998701;28;20043;-72
2023/09/26 04:38:06;;;;;;;23.77;17.65;;;17.30;99.90;;;17.77;98.44;101917.56;5007674;28;20045;-71
2023/09/26 04:40:35;;;;;;;26.83;18.33;;;17.30;99.90;;;17.78;98.20;101917.56;5005588;28;20058;-72
2023/09/26 04:43:05;;;;;;;29.65;18.15;;;17.30;99.90;;;17.77;98.22;101920.25;5014376;28;20492;-72
2023/09/26 04:45:34;;;;;;;27.98;18.48;;;17.30;99.90;;;17.85;98.32;101910.31;5010096;28;20123;-72
2023/09/26 04:48:05;;;;;;;26.55;18.38;;;17.40;99.90;;;18.03;97.58;101918.00;5001375;28;20058;-72
2023/09/26 04:50:34;;;;;;;22.63;18.00;;;17.50;99.90;;;18.09;97.04;101909.88;5017054;28;20050;-72
2023/09/26 04:53:03;;;;;;;25.70;18.95;;;17.60;99.90;;;18.12;96.59;101907.13;5009031;28;20104;-71
2023/09/26 04:55:31;;;;;;;35.10;19.13;;;17.70;99.90;;;18.11;96.35;101904.47;4998513;28;20077;-71
2023/09/26 04:58:00;;;;;;;26.08;19.05;;;17.70;99.90;;;18.15;96.10;101911.56;5005619;28;20050;-72
2023/09/26 05:00:29;;;;;;;26.40;19.95;;;17.70;99.90;;;18.08;96.16;101905.41;5006656;28;20057;-72
2023/09/26 05:02:58;;;;;;;25.15;19.83;;;17.70;99.90;;;18.15;96.25;101915.13;4997934;28;20522;-71
2023/09/26 05:05:28;;;;;;;26.80;19.98;;;17.70;99.90;;;17.41;96.30;101787.06;5008974;28;20124;-73
2023/09/26 05:07:57;;;;;;;27.48;21.40;;;17.60;99.90;;;17.90;96.99;101895.91;5003300;28;20038;-72
2023/09/26 05:10:25;;;;;;;27.45;20.10;;;17.50;99.90;;;18.05;96.89;101892.09;5000461;28;20149;-72
2023/09/26 05:12:54;;;;;;;28.23;21.48;;;17.60;99.90;;;17.85;97.06;101896.91;5010367;28;20130;-72
2023/09/26 05:15:22;;;;;;;27.13;21.02;;;17.50;99.90;;;17.59;98.24;101885.78;5000263;28;20065;-71
2023/09/26 05:17:52;;;;;;;31.25;21.58;;;17.30;99.90;;;17.57;98.17;101868.88;5005293;28;20058;-71
2023/09/26 05:20:21;;;;;;;27.77;20.95;;;17.30;99.90;;;17.89;97.50;101910.22;5008370;28;20053;-70
2023/09/26 05:22:51;;;;;;;29.77;21.77;;;17.40;99.90;;;18.01;96.95;101906.44;4997994;28;20138;-70
2023/09/26 05:25:20;;;;;;;34.33;22.63;;;17.50;99.90;;;18.04;96.57;101911.72;5008164;28;20045;-73
2023/09/26 05:27:48;;;;;;;29.63;21.77;;;17.60;99.90;;;18.10;95.93;101914.31;5004520;28;20470;-74
2023/09/26 05:30:17;;;;;;;26.73;21.52;;;17.70;99.90;;;18.21;95.63;101916.78;4999811;28;20038;-72
2023/09/26 05:32:45;;;;;;;29.60;22.00;;;17.70;99.90;;;18.22;95.24;101913.19;5010468;28;20381;-74
2023/09/26 05:35:14;;;;;;;27.90;21.17;;;17.80;99.90;;;18.17;95.12;101907.94;5000058;28;20049;-74
2023/09/26 05:37:42;;;;;;;28.40;21.10;;;17.80;99.90;;;18.26;94.66;101918.47;5003472;28;20046;-77
2023/09/26 05:40:12;;;;;;;25.75;20.25;;;17.80;99.90;;;18.30;94.53;101930.00;5008869;28;20038;-73
2023/09/26 05:42:41;;;;;;;27.30;21.23;;;17.90;99.90;;;18.30;94.02;101928.22;4997858;28;20040;-71
2023/09/26 05:45:11;;;;;;;25.70;20.88;;;17.80;99.90;;;18.15;94.44;101927.63;5006743;28;20042;-71
2023/09/26 05:47:40;;;;;;;29.08;21.58;;;17.80;99.90;;;17.98;95.04;101923.44;5004993;28;20054;-72
2023/09/26 05:50:09;;;;;;;25.00;20.33;;;17.60;99.90;;;17.88;95.79;101915.63;4997731;28;20408;-72
2023/09/26 05:52:38;;;;;;;28.08;20.90;;;17.50;99.90;;;17.85;95.99;101924.56;5009396;28;20431;-72
2023/09/26 05:55:07;;;;;;;25.50;19.55;;;17.40;99.90;;;17.94;95.83;101919.06;5001629;28;20054;-71
2023/09/26 05:57:37;;;;;;;25.90;19.50;;;17.50;99.90;;;18.06;95.49;101922.44;5001105;28;20105;-71
2023/09/26 06:00:12;;;;;;;25.20;20.35;;;17.60;99.90;;;17.99;95.16;101917.19;5009636;28;20195;-73
2023/09/26 06:02:42;;;;;;;25.33;18.95;;;17.50;99.90;;;17.77;95.14;101877.44;4998696;28;20398;-71
2023/09/26 06:05:11;;;;;;;27.40;20.08;;;17.50;99.90;;;18.02;94.80;101914.44;5003481;28;20043;-72
2023/09/26 06:07:40;;;;;;;26.08;19.10;;;17.60;99.90;;;17.97;95.17;101910.09;5007311;28;20438;-72
2023/09/26 06:10:11;;;;;;;23.80;19.23;;;17.50;99.90;;;17.53;96.58;101909.97;4997117;28;20077;-73
2023/09/26 06:12:41;;;;;;;24.13;18.95;;;17.20;99.90;;;17.53;97.83;101896.59;5006854;28;20496;-72
2023/09/26 06:15:11;;;;;;;26.25;20.08;;;17.10;99.90;;;17.63;97.54;101908.91;5004313;28;20081;-72
2023/09/26 06:17:40;;;;;;;26.60;20.83;;;17.20;99.90;;;17.59;97.44;101899.19;4998423;28;20042;-72
2023/09/26 06:20:11;;;;;;;25.60;19.55;;;17.10;99.90;;;17.61;97.60;101897.34;5009302;28;20050;-73
2023/09/26 06:22:40;;;;;;;24.52;19.65;;;17.10;99.90;;;17.69;97.17;101895.44;5000963;28;20076;-72
2023/09/26 06:25:10;;;;;;;26.90;19.35;;;17.20;99.90;;;17.78;96.77;101900.63;5001559;28;20046;-71
2023/09/26 06:27:40;;;;;;;23.88;18.73;;;17.30;99.90;;;17.82;96.46;101895.19;5009554;28;20054;-71
2023/09/26 06:30:11;;;;;;;26.50;19.90;;;17.40;99.90;;;17.88;96.14;101903.13;4997764;28;20070;-83
2023/09/26 06:32:40;;;;;;;28.98;20.77;;;17.50;99.90;;;17.85;95.87;101899.59;5019678;28;20481;-76
2023/09/26 06:35:11;;;;;;;27.58;21.13;;;17.40;99.90;;;17.69;96.16;101900.78;5006313;28;20056;-74
2023/09/26 06:37:39;;;;;;;28.10;21.15;;;17.40;99.90;;;17.71;96.30;101894.47;4996744;28;20049;-79
2023/09/26 06:40:10;;;;;;;24.02;19.98;;;17.30;99.90;;;17.60;96.79;101891.13;5023064;28;20046;-79
2023/09/26 06:42:39;;;;;;;26.33;20.33;;;17.30;99.90;;;17.71;97.10;101893.63;5003084;28;20129;-77
2023/09/26 06:45:11;;;;;;;30.33;21.48;;;17.30;99.90;;;17.66;96.82;101890.13;5014261;28;20145;-78
2023/09/26 06:47:39;;;;;;;25.95;21.60;;;17.30;99.90;;;17.52;97.90;101889.47;5009168;28;20057;-79
2023/09/26 06:50:11;;;;;;;28.13;20.08;;;17.20;99.90;;;17.65;98.14;101894.59;4999607;28;20060;-78
2023/09/26 06:52:39;;;;;;;24.40;20.88;;;17.20;99.90;;;17.77;97.55;101894.38;5002375;28;20129;-76
2023/09/26 06:55:10;;;;;;;33.33;20.42;;;17.30;99.90;;;17.89;97.12;101885.25;5007724;28;20045;-78
2023/09/26 06:57:40;;;;;;;32.00;21.98;;;17.40;99.90;;;17.49;96.77;101790.53;5011517;28;20118;-76
2023/09/26 07:00:16;;;;;;;26.95;20.88;;;17.60;99.90;;;18.16;96.49;101898.13;5004195;28;20057;-76
2023/09/26 07:02:45;;;;;;;28.83;20.45;;;17.70;99.90;;;18.35;95.71;101891.50;5005422;28;20069;-72
2023/09/26 07:05:13;;;;;;;30.05;20.85;;;17.90;99.90;;;18.47;95.22;101895.75;4996160;28;20049;-73
2023/09/26 07:07:42;;;;;;;25.85;19.65;;;18.00;99.90;;;18.54;95.22;101892.91;5007469;28;20053;-73
2023/09/26 07:10:11;;;;;;;28.42;19.60;;;18.10;99.90;;;18.58;94.36;101899.13;5001933;28;20038;-77
2023/09/26 07:12:41;;;;;;;24.30;18.98;;;18.20;99.90;;;18.71;94.16;101900.63;4999203;28;20444;-74
2023/09/26 07:15:13;;;;;;;26.52;19.45;;;18.30;99.90;;;18.66;94.36;101908.75;5008905;28;20073;-76
2023/09/26 07:17:42;;;;;;;26.60;18.98;;;18.20;99.90;;;18.04;94.31;101784.09;4998838;28;20042;-73
2023/09/26 07:20:14;;;;;;;26.55;20.42;;;18.30;99.90;;;18.77;94.24;101906.75;5001678;28;20046;-75
2023/09/26 07:22:44;;;;;;;24.58;19.65;;;18.30;99.90;;;18.73;94.13;101898.78;5007866;28;20422;-73
2023/09/26 07:25:13;;;;;;;30.80;20.17;;;18.30;99.90;;;19.11;93.64;101900.59;4996396;28;20415;-77
2023/09/26 07:27:42;;;;;;;26.60;19.58;;;18.70;99.90;;;19.25;94.03;101907.44;5005082;28;20046;-75
2023/09/26 07:30:16;;;;;;;26.75;21.25;;;18.80;99.90;;;19.52;92.16;101911.28;5004882;28;20038;-76
2023/09/26 07:32:44;;;;;;;26.65;19.75;;;19.00;99.90;;;19.76;91.73;101902.63;4996668;28;20074;-75
2023/09/26 07:35:13;;;;;;;25.13;18.90;;;19.30;99.90;;;19.89;90.25;101913.91;5007628;28;20058;-75
2023/09/26 07:37:42;;;;;;;23.65;18.60;;;19.40;99.90;;;19.89;89.07;101921.97;5001618;28;20100;-74
2023/09/26 07:40:11;;;;;;;26.08;18.77;;;19.50;99.90;;;19.74;89.52;101918.75;4999722;28;20046;-76
2023/09/26 07:42:40;;;;;;;22.08;18.13;;;19.30;99.90;;;19.67;90.17;101905.53;5008704;28;20407;-75
2023/09/26 07:45:10;;;;;;;25.48;18.88;;;19.30;99.90;;;19.78;90.80;101900.78;4996388;28;20136;-76
2023/09/26 07:47:40;;;;;;;23.33;18.35;;;19.30;99.90;;;19.99;90.43;101902.00;5002982;28;20062;-75
2023/09/26 07:50:09;;;;;;;23.20;19.40;;;19.50;99.90;;;20.14;90.26;101897.13;5006334;28;20053;-75
2023/09/26 07:52:37;;;;;;;24.30;18.27;;;19.70;99.90;;;20.27;89.27;101889.63;4996294;28;20488;-75
2023/09/26 07:55:09;;;;;;;25.40;18.80;;;19.80;99.90;;;20.23;88.53;101886.13;5006377;28;20492;-75
2023/09/26 07:57:38;;;;;;;24.48;17.48;;;19.90;99.90;;;20.11;88.50;101885.56;5003631;28;20049;-76
2023/09/26 08:00:11;;;;;;;23.63;19.15;;;19.80;99.90;;;19.84;89.84;101889.84;5001065;28;20069;-75
2023/09/26 08:02:41;;;;;;;29.25;18.67;;;19.60;99.90;;;19.62;91.33;101889.56;5011690;28;20042;-75
2023/09/26 08:05:09;;;;;;;23.13;18.45;;;19.30;99.90;;;19.50;93.35;101900.59;5003853;28;20069;-75
2023/09/26 08:07:42;;;;;;;25.52;17.98;;;19.00;99.90;;;19.50;94.06;101902.38;5004139;28;20084;-75
2023/09/26 08:10:11;;;;;;;22.67;17.50;;;19.00;99.90;;;19.81;93.22;101908.75;5011369;28;20518;-73
2023/09/26 08:12:41;;;;;;;26.60;18.42;;;19.30;99.90;;;19.86;93.24;101893.38;4999878;28;20056;-75
2023/09/26 08:15:11;;;;;;;23.98;19.20;;;19.40;99.90;;;19.43;96.04;101884.69;5006541;28;20081;-74
2023/09/26 08:17:41;;;;;;;22.70;18.60;;;19.10;99.90;;;19.40;97.02;101891.00;5008447;28;20537;-74
2023/09/26 08:20:10;;;;;;;27.42;19.17;;;19.00;99.90;;;19.57;97.27;101891.44;5014595;28;20050;-74
2023/09/26 08:22:39;;;;;;;24.63;19.52;;;19.10;99.90;;;19.74;96.33;101891.91;5009653;28;20507;-74
2023/09/26 08:25:09;;;;;;;24.58;19.27;;;19.30;99.90;;;19.74;97.08;101891.03;5005344;28;20081;-74
2023/09/26 08:27:37;;;;;;;29.90;19.45;;;19.30;99.90;;;19.64;97.07;101893.09;5001934;28;20058;-74
2023/09/26 08:30:11;;;;;;;25.83;18.10;;;19.20;99.90;;;19.59;96.12;101886.03;5011315;28;20053;-75
2023/09/26 08:32:41;;;;;;;25.20;18.40;;;19.20;99.90;;;19.84;95.53;101884.47;5002986;28;20046;-74
2023/09/26 08:35:11;;;;;;;24.77;16.83;;;19.40;99.90;;;19.73;92.86;101889.25;5003882;28;20081;-74
2023/09/26 08:37:40;;;;;;;28.13;17.15;;;19.40;99.90;;;20.39;92.90;101890.16;5026268;28;20046;-74
2023/09/26 08:40:11;;;;;;;23.25;17.63;;;19.90;99.90;;;20.44;90.16;101890.03;4999519;28;20052;-73
2023/09/26 08:42:45;;;;;;;21.42;17.30;;;20.00;99.90;;;20.37;90.14;101897.38;5007610;28;20054;-74
2023/09/26 08:45:14;;;;;;;23.27;17.02;;;20.00;99.90;;;20.34;88.85;101889.41;5008362;28;20112;-74
2023/09/26 08:47:45;;;;;;;22.33;17.38;;;19.90;99.90;;;20.35;88.33;101911.78;5014017;28;20378;-74
2023/09/26 08:50:14;;;;;;;21.60;16.67;;;20.00;99.90;;;20.46;87.46;101897.13;5009373;28;20050;-73
2023/09/26 08:52:42;;;;;;;22.67;16.50;;;20.00;99.90;;;20.31;86.50;101899.34;5003617;28;20045;-74
2023/09/26 08:55:11;;;;;;;21.15;16.05;;;20.00;99.90;;;20.06;86.63;101899.13;5001241;28;20134;-74
2023/09/26 08:57:41;;;;;;;22.27;16.60;;;19.70;99.90;;;20.23;88.70;101886.13;5011123;28;20042;-74
2023/09/26 09:00:13;;;;;;;23.58;16.90;;;19.80;99.90;;;20.15;88.65;101884.56;5001473;28;20053;-74
2023/09/26 09:02:41;;;;;;;21.13;16.67;;;19.70;99.90;;;20.26;88.63;101871.75;5004332;28;20051;-74
2023/09/26 09:05:11;;;;;;;20.42;16.05;;;19.80;99.90;;;20.42;88.08;101870.38;5009796;28;20569;-73
2023/09/26 09:07:40;;;;;;;18.05;14.60;;;19.90;99.90;;;20.33;86.59;101855.41;5013905;28;20054;-74
2023/09/26 09:10:11;;;;;;;24.40;15.27;;;20.00;99.90;;;20.69;85.83;101886.56;5006879;28;20085;-74
2023/09/26 09:12:41;;;;;;;17.27;12.13;;;20.20;99.90;;;21.04;82.59;101885.53;5006165;28;20050;-74
2023/09/26 09:15:24;;;;;;;12.98;11.05;;;20.60;99.90;;;21.03;77.74;101891.84;4998500;28;20074;-75
2023/09/26 09:17:53;;;;;;;15.30;10.98;;;20.70;99.90;;;21.17;78.78;101872.56;4999847;28;20451;-75
2023/09/26 09:20:32;;;;;;;11.95;9.80;;;20.90;99.90;;;21.27;77.76;101904.50;5014206;28;20050;-74
2023/09/26 09:23:03;;;;;;;13.68;10.80;;;20.90;99.90;;;21.38;77.00;101904.19;4998706;28;20116;-74
2023/09/26 09:25:33;;;;;;;;;;;21.00;99.90;;;21.69;75.28;101906.75;4998655;28;20451;-74
2023/09/26 09:28:01;;;;;;;16.00;10.75;;;21.40;99.90;;;21.95;74.88;101910.34;5014206;28;20350;-75
2023/09/26 09:30:30;;;;;;;13.70;10.25;;;21.60;99.90;;;22.23;75.60;101912.94;5001868;28;20046;-75
2023/09/26 09:32:58;;;;;;;15.05;10.05;;;21.90;99.90;;;22.39;73.95;101906.97;5010307;28;20045;-75
2023/09/26 09:35:28;;;;;;;16.48;10.13;;;22.10;99.90;;;22.51;73.07;101904.75;4998960;28;20054;-74
2023/09/26 09:37:58;;;;;;;15.27;10.00;;;22.20;99.90;;;22.65;71.30;101897.06;5005260;28;20056;-73
2023/09/26 09:40:26;;;;;;;14.90;10.32;;;22.40;99.90;;;22.73;71.62;101897.63;5007684;28;20491;-75
2023/09/26 09:42:55;;;;;;;12.77;10.00;;;22.50;99.90;;;22.94;69.78;101897.69;5013185;28;20053;-74
2023/09/26 09:45:29;;;;;;;16.35;9.50;;;22.60;99.90;;;22.98;67.28;101902.03;5008928;28;20396;-74
2023/09/26 09:48:00;;;;;;;15.63;10.35;;;22.70;99.90;;;23.07;69.75;101906.19;5004158;28;20058;-74
2023/09/26 09:50:33;;;;;;;13.07;10.25;;;22.90;99.90;;;23.33;69.08;101902.47;4999510;28;20085;-74
2023/09/26 09:53:03;;;;;;;14.10;10.38;;;23.10;99.90;;;23.54;69.16;101902.47;5010389;28;20375;-74
2023/09/26 09:55:38;;;;;;;10.85;9.52;;;23.30;99.90;;;23.51;69.36;101899.00;5001287;28;20076;-73
2023/09/26 09:58:09;;;;;;;11.65;9.18;;;23.30;99.90;;;23.83;65.85;101902.13;5001509;28;20046;-75
2023/09/26 10:00:40;;;;;;;14.05;9.45;;;23.60;99.90;;;23.87;66.39;101903.75;5010345;28;20058;-74
2023/09/26 10:03:10;;;;;;;;;;;23.60;99.90;;;23.91;66.40;101893.69;4998710;28;20479;-73
2023/09/26 10:05:42;;;;;;;14.13;10.00;;;23.70;99.90;;;23.81;66.48;101895.03;5004118;28;19984;-73
2023/09/26 10:08:11;;;;;;;16.63;9.50;;;23.50;99.90;;;23.74;64.48;101853.00;5008045;28;20071;-74
2023/09/26 10:10:42;;;;;;;10.43;8.63;;;23.70;99.90;;;24.00;65.30;101893.31;4997577;28;20042;-75
2023/09/26 10:13:10;;;;;;;11.45;7.65;;;23.70;99.90;;;23.93;64.65;101903.50;5006707;28;20136;-74